Aviation Digital Data Service (ADDS)

Output produced by METARs form (1730 UTC 18 January 2018)
found at http://aviationweather.gov/adds/metars/
 
KCXO 181120Z 1812/1912 VRB03KT P6SM SKC 
     FM181300 VRB05KT P6SM BKN070 
     FM190500 VRB03KT P6SM SCT030 BKN050